sensor_id;sensor_type;location;lat;lon;timestamp;temperature;humidity
39103;DHT22;24847;48.218;16.414;2023-06-14T00:01:28;16.60;99.90
39103;DHT22;24847;48.218;16.414;2023-06-14T00:06:30;16.60;99.90
39103;DHT22;24847;48.218;16.414;2023-06-14T00:11:34;16.50;99.90
39103;DHT22;24847;48.218;16.414;2023-06-14T00:16:38;16.30;99.90
39103;DHT22;24847;48.218;16.414;2023-06-14T00:21:42;16.40;99.90
39103;DHT22;24847;48.218;16.414;2023-06-14T00:26:45;16.10;99.90
39103;DHT22;24847;48.218;16.414;2023-06-14T00:31:48;16.00;99.90
39103;DHT22;24847;48.218;16.414;2023-06-14T00:36:51;15.80;99.90
39103;DHT22;24847;48.218;16.414;2023-06-14T00:41:53;16.10;99.90
39103;DHT22;24847;48.218;16.414;2023-06-14T00:46:56;15.90;99.90
39103;DHT22;24847;48.218;16.414;2023-06-14T00:51:59;15.90;99.90
39103;DHT22;24847;48.218;16.414;2023-06-14T00:57:03;15.90;99.90
39103;DHT22;24847;48.218;16.414;2023-06-14T01:02:08;15.80;99.90
39103;DHT22;24847;48.218;16.414;2023-06-14T01:07:14;16.00;99.90
39103;DHT22;24847;48.218;16.414;2023-06-14T01:12:24;15.60;99.90
39103;DHT22;24847;48.218;16.414;2023-06-14T01:17:34;15.70;99.90
39103;DHT22;24847;48.218;16.414;2023-06-14T01:22:50;15.50;99.90
39103;DHT22;24847;48.218;16.414;2023-06-14T01:27:57;15.50;99.90
39103;DHT22;24847;48.218;16.414;2023-06-14T01:33:01;15.70;99.90
39103;DHT22;24847;48.218;16.414;2023-06-14T01:38:06;15.50;99.90
39103;DHT22;24847;48.218;16.414;2023-06-14T01:43:10;15.60;99.90
39103;DHT22;24847;48.218;16.414;2023-06-14T01:48:13;15.50;99.90
39103;DHT22;24847;48.218;16.414;2023-06-14T01:53:17;15.50;99.90
39103;DHT22;24847;48.218;16.414;2023-06-14T01:58:20;15.50;99.90
39103;DHT22;24847;48.218;16.414;2023-06-14T02:03:22;15.50;99.90
39103;DHT22;24847;48.218;16.414;2023-06-14T02:08:27;15.40;99.90
39103;DHT22;24847;48.218;16.414;2023-06-14T02:13:29;15.20;99.90
39103;DHT22;24847;48.218;16.414;2023-06-14T02:18:31;15.20;99.90
39103;DHT22;24847;48.218;16.414;2023-06-14T02:23:35;15.30;99.90
39103;DHT22;24847;48.218;16.414;2023-06-14T02:28:37;15.20;99.90
39103;DHT22;24847;48.218;16.414;2023-06-14T02:33:39;15.20;99.90
39103;DHT22;24847;48.218;16.414;2023-06-14T02:38:43;15.20;99.90
39103;DHT22;24847;48.218;16.414;2023-06-14T02:43:45;15.30;99.90
39103;DHT22;24847;48.218;16.414;2023-06-14T02:48:48;15.20;99.90
39103;DHT22;24847;48.218;16.414;2023-06-14T02:53:51;15.10;99.90
39103;DHT22;24847;48.218;16.414;2023-06-14T02:58:54;15.10;99.90
39103;DHT22;24847;48.218;16.414;2023-06-14T03:03:56;14.90;99.90
39103;DHT22;24847;48.218;16.414;2023-06-14T03:09:00;15.10;99.90
39103;DHT22;24847;48.218;16.414;2023-06-14T03:14:05;15.00;99.90
39103;DHT22;24847;48.218;16.414;2023-06-14T03:19:08;14.80;99.90
39103;DHT22;24847;48.218;16.414;2023-06-14T03:24:12;15.00;99.90
39103;DHT22;24847;48.218;16.414;2023-06-14T03:29:17;14.80;99.90
39103;DHT22;24847;48.218;16.414;2023-06-14T03:34:19;15.10;99.90
39103;DHT22;24847;48.218;16.414;2023-06-14T03:39:22;14.90;99.90
39103;DHT22;24847;48.218;16.414;2023-06-14T03:44:26;15.20;99.90
39103;DHT22;24847;48.218;16.414;2023-06-14T03:49:29;14.90;99.90
39103;DHT22;24847;48.218;16.414;2023-06-14T03:54:32;14.90;99.90
39103;DHT22;24847;48.218;16.414;2023-06-14T03:59:34;15.00;99.90
39103;DHT22;24847;48.218;16.414;2023-06-14T04:04:37;15.00;99.90
39103;DHT22;24847;48.218;16.414;2023-06-14T04:09:40;15.10;99.90
39103;DHT22;24847;48.218;16.414;2023-06-14T04:14:43;15.20;99.90
39103;DHT22;24847;48.218;16.414;2023-06-14T04:19:45;15.20;99.90
39103;DHT22;24847;48.218;16.414;2023-06-14T04:24:49;15.40;99.90
39103;DHT22;24847;48.218;16.414;2023-06-14T04:29:53;15.60;99.90
39103;DHT22;24847;48.218;16.414;2023-06-14T04:34:57;15.70;99.90
39103;DHT22;24847;48.218;16.414;2023-06-14T04:40:05;15.80;99.90
39103;DHT22;24847;48.218;16.414;2023-06-14T04:45:08;15.90;99.90
39103;DHT22;24847;48.218;16.414;2023-06-14T04:50:11;15.80;99.90
39103;DHT22;24847;48.218;16.414;2023-06-14T04:55:15;16.20;99.90
39103;DHT22;24847;48.218;16.414;2023-06-14T05:00:18;15.90;99.90
39103;DHT22;24847;48.218;16.414;2023-06-14T05:05:20;15.80;99.90
39103;DHT22;24847;48.218;16.414;2023-06-14T05:10:24;15.90;99.90
39103;DHT22;24847;48.218;16.414;2023-06-14T05:15:26;16.00;99.90
39103;DHT22;24847;48.218;16.414;2023-06-14T05:20:29;16.10;99.90
39103;DHT22;24847;48.218;16.414;2023-06-14T05:25:33;17.20;99.90
39103;DHT22;24847;48.218;16.414;2023-06-14T05:30:35;18.30;99.90
39103;DHT22;24847;48.218;16.414;2023-06-14T05:35:37;18.90;99.90
39103;DHT22;24847;48.218;16.414;2023-06-14T05:40:41;18.20;99.90
39103;DHT22;24847;48.218;16.414;2023-06-14T05:45:43;18.10;99.90
39103;DHT22;24847;48.218;16.414;2023-06-14T05:50:46;18.20;99.90
39103;DHT22;24847;48.218;16.414;2023-06-14T05:55:50;18.70;99.90
39103;DHT22;24847;48.218;16.414;2023-06-14T06:00:54;19.10;99.90
39103;DHT22;24847;48.218;16.414;2023-06-14T06:05:56;19.20;99.90
39103;DHT22;24847;48.218;16.414;2023-06-14T06:11:00;19.20;99.90
39103;DHT22;24847;48.218;16.414;2023-06-14T06:16:02;19.40;99.90
39103;DHT22;24847;48.218;16.414;2023-06-14T06:21:07;19.90;99.90
39103;DHT22;24847;48.218;16.414;2023-06-14T06:26:10;20.40;99.90
39103;DHT22;24847;48.218;16.414;2023-06-14T06:31:13;20.80;99.90
39103;DHT22;24847;48.218;16.414;2023-06-14T06:36:16;20.70;99.90
39103;DHT22;24847;48.218;16.414;2023-06-14T06:41:20;20.50;99.90
39103;DHT22;24847;48.218;16.414;2023-06-14T06:46:22;21.20;99.90
39103;DHT22;24847;48.218;16.414;2023-06-14T06:51:24;21.30;99.90
39103;DHT22;24847;48.218;16.414;2023-06-14T06:56:28;21.40;99.90
39103;DHT22;24847;48.218;16.414;2023-06-14T07:01:30;21.40;99.90
39103;DHT22;24847;48.218;16.414;2023-06-14T07:06:34;21.90;99.90
39103;DHT22;24847;48.218;16.414;2023-06-14T07:11:38;21.90;99.90
39103;DHT22;24847;48.218;16.414;2023-06-14T07:16:40;22.40;99.90
39103;DHT22;24847;48.218;16.414;2023-06-14T07:21:46;22.50;99.90
39103;DHT22;24847;48.218;16.414;2023-06-14T07:26:50;22.60;99.90
39103;DHT22;24847;48.218;16.414;2023-06-14T07:31:52;22.50;99.90
39103;DHT22;24847;48.218;16.414;2023-06-14T07:36:54;22.90;99.90
39103;DHT22;24847;48.218;16.414;2023-06-14T07:41:57;23.30;99.90
39103;DHT22;24847;48.218;16.414;2023-06-14T07:47:00;23.00;99.90
39103;DHT22;24847;48.218;16.414;2023-06-14T07:52:02;23.60;99.90
39103;DHT22;24847;48.218;16.414;2023-06-14T07:57:07;23.10;99.90
39103;DHT22;24847;48.218;16.414;2023-06-14T08:02:09;22.50;99.90
39103;DHT22;24847;48.218;16.414;2023-06-14T08:07:11;22.80;99.90
39103;DHT22;24847;48.218;16.414;2023-06-14T08:12:15;22.90;99.90
39103;DHT22;24847;48.218;16.414;2023-06-14T08:17:17;23.10;99.90
39103;DHT22;24847;48.218;16.414;2023-06-14T08:22:19;23.40;99.90
39103;DHT22;24847;48.218;16.414;2023-06-14T08:27:23;23.70;99.90
39103;DHT22;24847;48.218;16.414;2023-06-14T08:32:25;24.70;99.90
39103;DHT22;24847;48.218;16.414;2023-06-14T08:37:28;24.10;99.90
39103;DHT22;24847;48.218;16.414;2023-06-14T08:42:32;25.20;99.90
39103;DHT22;24847;48.218;16.414;2023-06-14T08:47:35;24.60;99.90
39103;DHT22;24847;48.218;16.414;2023-06-14T08:52:38;24.20;99.90
39103;DHT22;24847;48.218;16.414;2023-06-14T08:57:47;23.60;99.90
39103;DHT22;24847;48.218;16.414;2023-06-14T09:02:51;23.20;99.90
39103;DHT22;24847;48.218;16.414;2023-06-14T09:07:58;24.50;99.90
39103;DHT22;24847;48.218;16.414;2023-06-14T09:13:03;23.50;99.90
39103;DHT22;24847;48.218;16.414;2023-06-14T09:18:05;25.10;99.90
39103;DHT22;24847;48.218;16.414;2023-06-14T09:23:07;24.70;99.90
39103;DHT22;24847;48.218;16.414;2023-06-14T09:28:11;24.80;99.90
39103;DHT22;24847;48.218;16.414;2023-06-14T09:33:17;24.00;99.90
39103;DHT22;24847;48.218;16.414;2023-06-14T09:38:19;24.80;99.90
39103;DHT22;24847;48.218;16.414;2023-06-14T09:43:23;24.90;99.90
39103;DHT22;24847;48.218;16.414;2023-06-14T09:48:27;24.20;99.90
39103;DHT22;24847;48.218;16.414;2023-06-14T09:53:30;24.50;99.90
39103;DHT22;24847;48.218;16.414;2023-06-14T09:58:37;25.30;99.90
39103;DHT22;24847;48.218;16.414;2023-06-14T10:03:41;24.90;99.90
39103;DHT22;24847;48.218;16.414;2023-06-14T10:08:46;25.50;99.90
39103;DHT22;24847;48.218;16.414;2023-06-14T10:13:50;25.00;99.90
39103;DHT22;24847;48.218;16.414;2023-06-14T10:19:01;23.90;99.90
39103;DHT22;24847;48.218;16.414;2023-06-14T10:24:08;24.20;99.90
39103;DHT22;24847;48.218;16.414;2023-06-14T10:29:13;24.20;99.90
39103;DHT22;24847;48.218;16.414;2023-06-14T10:34:24;23.80;99.90
39103;DHT22;24847;48.218;16.414;2023-06-14T10:39:27;24.00;99.90
39103;DHT22;24847;48.218;16.414;2023-06-14T10:44:41;23.80;99.90
39103;DHT22;24847;48.218;16.414;2023-06-14T10:49:45;23.90;99.90
39103;DHT22;24847;48.218;16.414;2023-06-14T10:55:08;23.40;99.90
39103;DHT22;24847;48.218;16.414;2023-06-14T11:00:14;22.80;99.90
39103;DHT22;24847;48.218;16.414;2023-06-14T11:05:24;22.20;99.90
39103;DHT22;24847;48.218;16.414;2023-06-14T11:10:35;22.90;99.90
39103;DHT22;24847;48.218;16.414;2023-06-14T11:15:44;22.90;99.90
39103;DHT22;24847;48.218;16.414;2023-06-14T11:20:48;22.80;99.90
39103;DHT22;24847;48.218;16.414;2023-06-14T11:25:50;23.00;99.90
39103;DHT22;24847;48.218;16.414;2023-06-14T11:31:01;23.40;99.90
39103;DHT22;24847;48.218;16.414;2023-06-14T11:36:06;23.70;99.90
39103;DHT22;24847;48.218;16.414;2023-06-14T11:41:09;23.50;99.90
39103;DHT22;24847;48.218;16.414;2023-06-14T11:46:16;23.80;99.90
39103;DHT22;24847;48.218;16.414;2023-06-14T11:51:22;23.90;99.90
39103;DHT22;24847;48.218;16.414;2023-06-14T11:56:25;24.00;99.90
39103;DHT22;24847;48.218;16.414;2023-06-14T12:01:29;23.40;99.90
39103;DHT22;24847;48.218;16.414;2023-06-14T12:06:32;23.90;99.90
39103;DHT22;24847;48.218;16.414;2023-06-14T12:11:36;23.90;99.90
39103;DHT22;24847;48.218;16.414;2023-06-14T12:16:40;23.10;99.90
39103;DHT22;24847;48.218;16.414;2023-06-14T12:21:45;23.60;99.90
39103;DHT22;24847;48.218;16.414;2023-06-14T12:26:51;23.30;99.90
39103;DHT22;24847;48.218;16.414;2023-06-14T12:32:01;23.20;99.90
39103;DHT22;24847;48.218;16.414;2023-06-14T12:37:03;23.10;99.90
39103;DHT22;24847;48.218;16.414;2023-06-14T12:42:07;22.90;99.90
39103;DHT22;24847;48.218;16.414;2023-06-14T12:47:11;22.80;99.90
39103;DHT22;24847;48.218;16.414;2023-06-14T12:52:13;22.70;99.90
39103;DHT22;24847;48.218;16.414;2023-06-14T12:57:15;22.40;99.90
39103;DHT22;24847;48.218;16.414;2023-06-14T13:02:20;22.50;99.90
39103;DHT22;24847;48.218;16.414;2023-06-14T13:07:23;22.50;99.90
39103;DHT22;24847;48.218;16.414;2023-06-14T13:12:25;22.50;99.90
39103;DHT22;24847;48.218;16.414;2023-06-14T13:17:29;22.50;99.90
39103;DHT22;24847;48.218;16.414;2023-06-14T13:22:35;22.40;99.90
39103;DHT22;24847;48.218;16.414;2023-06-14T13:27:37;22.60;99.90
39103;DHT22;24847;48.218;16.414;2023-06-14T13:32:41;22.40;99.90
39103;DHT22;24847;48.218;16.414;2023-06-14T13:37:43;22.70;99.90
39103;DHT22;24847;48.218;16.414;2023-06-14T13:42:46;22.80;99.90
39103;DHT22;24847;48.218;16.414;2023-06-14T13:47:49;22.40;99.90
39103;DHT22;24847;48.218;16.414;2023-06-14T13:52:52;22.70;99.90
39103;DHT22;24847;48.218;16.414;2023-06-14T13:57:54;22.70;99.90
39103;DHT22;24847;48.218;16.414;2023-06-14T14:02:58;22.40;99.90
39103;DHT22;24847;48.218;16.414;2023-06-14T14:08:01;22.10;99.90
39103;DHT22;24847;48.218;16.414;2023-06-14T14:13:04;22.20;99.90
39103;DHT22;24847;48.218;16.414;2023-06-14T14:18:08;22.10;99.90
39103;DHT22;24847;48.218;16.414;2023-06-14T14:23:10;22.00;99.90
39103;DHT22;24847;48.218;16.414;2023-06-14T14:28:12;22.00;99.90
39103;DHT22;24847;48.218;16.414;2023-06-14T14:33:18;22.00;99.90
39103;DHT22;24847;48.218;16.414;2023-06-14T14:38:20;22.00;99.90
39103;DHT22;24847;48.218;16.414;2023-06-14T14:43:23;22.20;99.90
39103;DHT22;24847;48.218;16.414;2023-06-14T14:48:26;22.50;99.90
39103;DHT22;24847;48.218;16.414;2023-06-14T14:53:28;22.50;99.90
39103;DHT22;24847;48.218;16.414;2023-06-14T14:58:33;22.30;99.90
39103;DHT22;24847;48.218;16.414;2023-06-14T15:03:37;22.20;99.90
39103;DHT22;24847;48.218;16.414;2023-06-14T15:08:39;22.50;99.90
39103;DHT22;24847;48.218;16.414;2023-06-14T15:13:41;22.10;99.90
39103;DHT22;24847;48.218;16.414;2023-06-14T15:18:45;22.70;99.90
39103;DHT22;24847;48.218;16.414;2023-06-14T15:23:47;22.60;99.90
39103;DHT22;24847;48.218;16.414;2023-06-14T15:28:50;22.70;99.90
39103;DHT22;24847;48.218;16.414;2023-06-14T15:33:54;22.40;99.90
39103;DHT22;24847;48.218;16.414;2023-06-14T15:38:56;22.20;99.90
39103;DHT22;24847;48.218;16.414;2023-06-14T15:43:59;22.50;99.90
39103;DHT22;24847;48.218;16.414;2023-06-14T15:49:08;22.50;99.90
39103;DHT22;24847;48.218;16.414;2023-06-14T15:54:11;22.40;99.90
39103;DHT22;24847;48.218;16.414;2023-06-14T15:59:13;22.40;99.90
39103;DHT22;24847;48.218;16.414;2023-06-14T16:04:19;22.10;99.90
39103;DHT22;24847;48.218;16.414;2023-06-14T16:09:22;22.20;99.90
39103;DHT22;24847;48.218;16.414;2023-06-14T16:14:24;22.20;99.90
39103;DHT22;24847;48.218;16.414;2023-06-14T16:19:28;22.30;99.90
39103;DHT22;24847;48.218;16.414;2023-06-14T16:24:30;22.20;99.90
39103;DHT22;24847;48.218;16.414;2023-06-14T16:29:32;21.90;99.90
39103;DHT22;24847;48.218;16.414;2023-06-14T16:34:36;21.60;99.90
39103;DHT22;24847;48.218;16.414;2023-06-14T16:39:39;21.50;99.90
39103;DHT22;24847;48.218;16.414;2023-06-14T16:44:41;21.80;99.90
39103;DHT22;24847;48.218;16.414;2023-06-14T16:49:44;21.70;99.90
39103;DHT22;24847;48.218;16.414;2023-06-14T16:54:47;21.30;99.90
39103;DHT22;24847;48.218;16.414;2023-06-14T16:59:49;21.40;99.90
39103;DHT22;24847;48.218;16.414;2023-06-14T17:04:52;21.30;99.90
39103;DHT22;24847;48.218;16.414;2023-06-14T17:09:55;21.30;99.90
39103;DHT22;24847;48.218;16.414;2023-06-14T17:14:57;21.40;99.90
39103;DHT22;24847;48.218;16.414;2023-06-14T17:20:01;21.40;99.90
39103;DHT22;24847;48.218;16.414;2023-06-14T17:25:05;21.00;99.90
39103;DHT22;24847;48.218;16.414;2023-06-14T17:30:09;21.30;99.90
39103;DHT22;24847;48.218;16.414;2023-06-14T17:35:13;21.30;99.90
39103;DHT22;24847;48.218;16.414;2023-06-14T17:40:16;21.10;99.90
39103;DHT22;24847;48.218;16.414;2023-06-14T17:45:18;21.20;99.90
39103;DHT22;24847;48.218;16.414;2023-06-14T17:50:22;21.10;99.90
39103;DHT22;24847;48.218;16.414;2023-06-14T17:55:24;21.10;99.90
39103;DHT22;24847;48.218;16.414;2023-06-14T18:00:26;21.00;99.90
39103;DHT22;24847;48.218;16.414;2023-06-14T18:05:30;21.00;99.90
39103;DHT22;24847;48.218;16.414;2023-06-14T18:10:32;20.70;99.90
39103;DHT22;24847;48.218;16.414;2023-06-14T18:15:34;20.70;99.90
39103;DHT22;24847;48.218;16.414;2023-06-14T18:20:38;20.60;99.90
39103;DHT22;24847;48.218;16.414;2023-06-14T18:25:41;20.50;99.90
39103;DHT22;24847;48.218;16.414;2023-06-14T18:30:43;20.60;99.90
39103;DHT22;24847;48.218;16.414;2023-06-14T18:35:47;20.40;99.90
39103;DHT22;24847;48.218;16.414;2023-06-14T18:40:49;20.30;99.90
39103;DHT22;24847;48.218;16.414;2023-06-14T18:45:52;20.40;99.90
39103;DHT22;24847;48.218;16.414;2023-06-14T18:50:56;20.20;99.90
39103;DHT22;24847;48.218;16.414;2023-06-14T18:55:58;20.30;99.90
39103;DHT22;24847;48.218;16.414;2023-06-14T19:01:01;20.20;99.90
39103;DHT22;24847;48.218;16.414;2023-06-14T19:06:05;20.30;99.90
39103;DHT22;24847;48.218;16.414;2023-06-14T19:11:08;20.20;99.90
39103;DHT22;24847;48.218;16.414;2023-06-14T19:16:10;20.00;99.90
39103;DHT22;24847;48.218;16.414;2023-06-14T19:21:14;20.10;99.90
39103;DHT22;24847;48.218;16.414;2023-06-14T19:26:16;19.90;99.90
39103;DHT22;24847;48.218;16.414;2023-06-14T19:31:18;19.80;99.90
39103;DHT22;24847;48.218;16.414;2023-06-14T19:36:22;19.70;99.90
39103;DHT22;24847;48.218;16.414;2023-06-14T19:41:24;19.80;99.90
39103;DHT22;24847;48.218;16.414;2023-06-14T19:46:28;19.70;99.90
39103;DHT22;24847;48.218;16.414;2023-06-14T19:51:32;19.60;99.90
39103;DHT22;24847;48.218;16.414;2023-06-14T19:56:34;19.70;99.90
39103;DHT22;24847;48.218;16.414;2023-06-14T20:01:36;19.90;99.90
39103;DHT22;24847;48.218;16.414;2023-06-14T20:06:40;19.50;99.90
39103;DHT22;24847;48.218;16.414;2023-06-14T20:11:42;19.50;99.90
39103;DHT22;24847;48.218;16.414;2023-06-14T20:16:45;19.60;99.90
39103;DHT22;24847;48.218;16.414;2023-06-14T20:21:48;19.50;99.90
39103;DHT22;24847;48.218;16.414;2023-06-14T20:26:50;19.20;99.90
39103;DHT22;24847;48.218;16.414;2023-06-14T20:31:54;19.30;99.90
39103;DHT22;24847;48.218;16.414;2023-06-14T20:36:58;19.30;99.90
39103;DHT22;24847;48.218;16.414;2023-06-14T20:42:00;19.30;99.90
39103;DHT22;24847;48.218;16.414;2023-06-14T20:47:03;19.30;99.90
39103;DHT22;24847;48.218;16.414;2023-06-14T20:52:08;19.30;99.90
39103;DHT22;24847;48.218;16.414;2023-06-14T20:57:11;19.20;99.90
39103;DHT22;24847;48.218;16.414;2023-06-14T21:02:14;19.10;99.90
39103;DHT22;24847;48.218;16.414;2023-06-14T21:07:19;19.20;99.90
39103;DHT22;24847;48.218;16.414;2023-06-14T21:12:21;19.30;99.90
39103;DHT22;24847;48.218;16.414;2023-06-14T21:17:24;19.00;99.90
39103;DHT22;24847;48.218;16.414;2023-06-14T21:22:28;19.10;99.90
39103;DHT22;24847;48.218;16.414;2023-06-14T21:27:30;18.70;99.90
39103;DHT22;24847;48.218;16.414;2023-06-14T21:32:33;18.80;99.90
39103;DHT22;24847;48.218;16.414;2023-06-14T21:37:38;18.80;99.90
39103;DHT22;24847;48.218;16.414;2023-06-14T21:42:40;18.70;99.90
39103;DHT22;24847;48.218;16.414;2023-06-14T21:47:42;18.50;99.90
39103;DHT22;24847;48.218;16.414;2023-06-14T21:52:47;18.60;99.90
39103;DHT22;24847;48.218;16.414;2023-06-14T21:57:49;18.70;99.90
39103;DHT22;24847;48.218;16.414;2023-06-14T22:02:52;19.10;99.90
39103;DHT22;24847;48.218;16.414;2023-06-14T22:07:55;19.10;99.90
39103;DHT22;24847;48.218;16.414;2023-06-14T22:12:58;18.90;99.90
39103;DHT22;24847;48.218;16.414;2023-06-14T22:18:01;18.70;99.90
39103;DHT22;24847;48.218;16.414;2023-06-14T22:23:04;17.90;99.90
39103;DHT22;24847;48.218;16.414;2023-06-14T22:28:08;17.70;99.90
39103;DHT22;24847;48.218;16.414;2023-06-14T22:33:10;17.60;99.90
39103;DHT22;24847;48.218;16.414;2023-06-14T22:38:14;17.50;99.90
39103;DHT22;24847;48.218;16.414;2023-06-14T22:43:20;17.40;99.90
39103;DHT22;24847;48.218;16.414;2023-06-14T22:48:22;16.90;99.90
39103;DHT22;24847;48.218;16.414;2023-06-14T22:53:26;16.80;99.90
39103;DHT22;24847;48.218;16.414;2023-06-14T22:58:29;16.80;99.90
39103;DHT22;24847;48.218;16.414;2023-06-14T23:03:32;16.90;99.90
39103;DHT22;24847;48.218;16.414;2023-06-14T23:08:36;17.10;99.90
39103;DHT22;24847;48.218;16.414;2023-06-14T23:13:44;17.20;99.90
39103;DHT22;24847;48.218;16.414;2023-06-14T23:18:48;17.20;99.90
39103;DHT22;24847;48.218;16.414;2023-06-14T23:23:53;16.80;99.90
39103;DHT22;24847;48.218;16.414;2023-06-14T23:28:55;16.60;99.90
39103;DHT22;24847;48.218;16.414;2023-06-14T23:33:57;16.40;99.90
39103;DHT22;24847;48.218;16.414;2023-06-14T23:39:01;16.60;99.90
39103;DHT22;24847;48.218;16.414;2023-06-14T23:44:05;16.90;99.90
39103;DHT22;24847;48.218;16.414;2023-06-14T23:49:07;17.20;99.90
39103;DHT22;24847;48.218;16.414;2023-06-14T23:54:11;17.00;99.90
39103;DHT22;24847;48.218;16.414;2023-06-14T23:59:17;16.60;99.90
